Webcam Flughafen St.Gallen-Altenrhein

Live-Bilder und Zeitraffer LSZR / ACH.

 

Live aus Altenrhein
LIVE
LSZR 191020Z 09004KT 9999 BKN013 M03/M05 Q1016 NOSIG RMK E
Zeitraffer heute
2019-01-19 00:14:58
LSZR 182250Z AUTO 11004KT CAVOK M02/M06 Q1016
Zeitraffer gestern
2019-01-18 00:14:42
LSZR 172250Z AUTO VRB01KT 9999 FEW037 BKN043 BKN060 02/M00 Q1014
Zeitraffer vor 3 Tagen
2019-01-16 00:14:38
LSZR 152250Z AUTO VRB02KT CAVOK M01/M02 Q1021